sensor_id;sensor_type;location;lat;lon;timestamp;temperature;humidity
25046;DHT22;13044;49.304;12.840;2024-02-21T00:00:47;7.60;99.90
25046;DHT22;13044;49.304;12.840;2024-02-21T00:03:15;7.50;99.90
25046;DHT22;13044;49.304;12.840;2024-02-21T00:05:42;7.50;99.90
25046;DHT22;13044;49.304;12.840;2024-02-21T00:08:09;7.50;99.90
25046;DHT22;13044;49.304;12.840;2024-02-21T00:10:35;7.50;99.90
25046;DHT22;13044;49.304;12.840;2024-02-21T00:13:03;7.50;99.90
25046;DHT22;13044;49.304;12.840;2024-02-21T00:15:29;7.50;99.90
25046;DHT22;13044;49.304;12.840;2024-02-21T00:17:57;7.50;99.90
25046;DHT22;13044;49.304;12.840;2024-02-21T00:20:24;7.50;99.90
25046;DHT22;13044;49.304;12.840;2024-02-21T00:22:52;7.50;99.90
25046;DHT22;13044;49.304;12.840;2024-02-21T00:25:19;7.50;99.90
25046;DHT22;13044;49.304;12.840;2024-02-21T00:27:46;7.50;99.90
25046;DHT22;13044;49.304;12.840;2024-02-21T00:30:13;7.50;99.90
25046;DHT22;13044;49.304;12.840;2024-02-21T00:32:40;7.50;99.90
25046;DHT22;13044;49.304;12.840;2024-02-21T00:35:07;7.50;99.90
25046;DHT22;13044;49.304;12.840;2024-02-21T00:37:35;7.50;99.90
25046;DHT22;13044;49.304;12.840;2024-02-21T00:40:02;7.50;99.90
25046;DHT22;13044;49.304;12.840;2024-02-21T00:42:29;7.40;99.90
25046;DHT22;13044;49.304;12.840;2024-02-21T00:44:56;7.40;99.90
25046;DHT22;13044;49.304;12.840;2024-02-21T00:47:23;7.40;99.90
25046;DHT22;13044;49.304;12.840;2024-02-21T00:49:50;7.40;99.90
25046;DHT22;13044;49.304;12.840;2024-02-21T00:52:17;7.40;99.90
25046;DHT22;13044;49.304;12.840;2024-02-21T00:54:44;7.40;99.90
25046;DHT22;13044;49.304;12.840;2024-02-21T00:57:19;7.40;99.90
25046;DHT22;13044;49.304;12.840;2024-02-21T00:59:46;7.30;99.90
25046;DHT22;13044;49.304;12.840;2024-02-21T01:02:13;7.30;99.90
25046;DHT22;13044;49.304;12.840;2024-02-21T01:04:40;7.30;99.90
25046;DHT22;13044;49.304;12.840;2024-02-21T01:07:07;7.30;99.90
25046;DHT22;13044;49.304;12.840;2024-02-21T01:09:34;7.30;99.90
25046;DHT22;13044;49.304;12.840;2024-02-21T01:12:01;7.30;99.90
25046;DHT22;13044;49.304;12.840;2024-02-21T01:14:28;7.30;99.90
25046;DHT22;13044;49.304;12.840;2024-02-21T01:16:55;7.30;99.90
25046;DHT22;13044;49.304;12.840;2024-02-21T01:19:22;7.30;99.90
25046;DHT22;13044;49.304;12.840;2024-02-21T01:21:49;7.30;99.90
25046;DHT22;13044;49.304;12.840;2024-02-21T01:24:16;7.20;99.90
25046;DHT22;13044;49.304;12.840;2024-02-21T01:26:43;7.20;99.90
25046;DHT22;13044;49.304;12.840;2024-02-21T01:29:10;7.20;99.90
25046;DHT22;13044;49.304;12.840;2024-02-21T01:31:37;7.20;99.90
25046;DHT22;13044;49.304;12.840;2024-02-21T01:34:04;7.10;99.90
25046;DHT22;13044;49.304;12.840;2024-02-21T01:36:31;7.20;99.90
25046;DHT22;13044;49.304;12.840;2024-02-21T01:38:57;7.10;99.90
25046;DHT22;13044;49.304;12.840;2024-02-21T01:41:24;7.10;99.90
25046;DHT22;13044;49.304;12.840;2024-02-21T01:43:51;7.10;99.90
25046;DHT22;13044;49.304;12.840;2024-02-21T01:46:18;7.10;99.90
25046;DHT22;13044;49.304;12.840;2024-02-21T01:48:46;7.10;99.90
25046;DHT22;13044;49.304;12.840;2024-02-21T01:51:13;7.10;99.90
25046;DHT22;13044;49.304;12.840;2024-02-21T01:53:43;7.10;99.90
25046;DHT22;13044;49.304;12.840;2024-02-21T01:56:12;7.10;99.90
25046;DHT22;13044;49.304;12.840;2024-02-21T01:58:40;7.10;99.90
25046;DHT22;13044;49.304;12.840;2024-02-21T02:01:10;7.10;99.90
25046;DHT22;13044;49.304;12.840;2024-02-21T02:03:37;7.10;99.90
25046;DHT22;13044;49.304;12.840;2024-02-21T02:06:07;7.00;99.90
25046;DHT22;13044;49.304;12.840;2024-02-21T02:08:35;7.00;99.90
25046;DHT22;13044;49.304;12.840;2024-02-21T02:11:02;7.00;99.90
25046;DHT22;13044;49.304;12.840;2024-02-21T02:13:29;7.00;99.90
25046;DHT22;13044;49.304;12.840;2024-02-21T02:15:56;6.90;99.90
25046;DHT22;13044;49.304;12.840;2024-02-21T02:18:23;6.80;99.90
25046;DHT22;13044;49.304;12.840;2024-02-21T02:20:50;6.90;99.90
25046;DHT22;13044;49.304;12.840;2024-02-21T02:23:24;6.90;99.90
25046;DHT22;13044;49.304;12.840;2024-02-21T02:25:55;6.90;99.90
25046;DHT22;13044;49.304;12.840;2024-02-21T02:28:23;6.90;99.90
25046;DHT22;13044;49.304;12.840;2024-02-21T02:30:51;6.90;99.90
25046;DHT22;13044;49.304;12.840;2024-02-21T02:33:18;6.90;99.90
25046;DHT22;13044;49.304;12.840;2024-02-21T02:35:46;6.90;99.90
25046;DHT22;13044;49.304;12.840;2024-02-21T02:38:12;6.90;99.90
25046;DHT22;13044;49.304;12.840;2024-02-21T02:40:40;6.90;99.90
25046;DHT22;13044;49.304;12.840;2024-02-21T02:43:08;6.90;99.90
25046;DHT22;13044;49.304;12.840;2024-02-21T02:45:35;6.90;99.90
25046;DHT22;13044;49.304;12.840;2024-02-21T02:48:03;6.90;99.90
25046;DHT22;13044;49.304;12.840;2024-02-21T02:50:31;6.90;99.90
25046;DHT22;13044;49.304;12.840;2024-02-21T02:52:58;6.80;99.90
25046;DHT22;13044;49.304;12.840;2024-02-21T02:55:25;6.80;99.90
25046;DHT22;13044;49.304;12.840;2024-02-21T02:57:53;6.80;99.90
25046;DHT22;13044;49.304;12.840;2024-02-21T03:00:20;6.80;99.90
25046;DHT22;13044;49.304;12.840;2024-02-21T03:02:49;6.80;99.90
25046;DHT22;13044;49.304;12.840;2024-02-21T03:05:18;6.80;99.90
25046;DHT22;13044;49.304;12.840;2024-02-21T03:07:47;6.80;99.90
25046;DHT22;13044;49.304;12.840;2024-02-21T03:10:15;6.80;99.90
25046;DHT22;13044;49.304;12.840;2024-02-21T03:12:46;6.80;99.90
25046;DHT22;13044;49.304;12.840;2024-02-21T03:15:14;6.80;99.90
25046;DHT22;13044;49.304;12.840;2024-02-21T03:17:41;6.80;99.90
25046;DHT22;13044;49.304;12.840;2024-02-21T03:20:10;6.80;99.90
25046;DHT22;13044;49.304;12.840;2024-02-21T03:22:40;6.80;99.90
25046;DHT22;13044;49.304;12.840;2024-02-21T03:25:08;6.80;99.90
25046;DHT22;13044;49.304;12.840;2024-02-21T03:27:36;6.80;99.90
25046;DHT22;13044;49.304;12.840;2024-02-21T03:30:04;6.80;99.90
25046;DHT22;13044;49.304;12.840;2024-02-21T03:32:31;6.80;99.90
25046;DHT22;13044;49.304;12.840;2024-02-21T03:34:58;6.70;99.90
25046;DHT22;13044;49.304;12.840;2024-02-21T03:37:26;6.80;99.90
25046;DHT22;13044;49.304;12.840;2024-02-21T03:39:53;6.80;99.90
25046;DHT22;13044;49.304;12.840;2024-02-21T03:42:19;6.80;99.90
25046;DHT22;13044;49.304;12.840;2024-02-21T03:44:46;6.80;99.90
25046;DHT22;13044;49.304;12.840;2024-02-21T03:47:13;6.80;99.90
25046;DHT22;13044;49.304;12.840;2024-02-21T03:49:40;6.80;99.90
25046;DHT22;13044;49.304;12.840;2024-02-21T03:52:07;6.90;99.90
25046;DHT22;13044;49.304;12.840;2024-02-21T03:54:34;6.90;99.90
25046;DHT22;13044;49.304;12.840;2024-02-21T03:57:01;6.90;99.90
25046;DHT22;13044;49.304;12.840;2024-02-21T03:59:29;6.80;99.90
25046;DHT22;13044;49.304;12.840;2024-02-21T04:01:56;6.80;99.90
25046;DHT22;13044;49.304;12.840;2024-02-21T04:04:23;6.80;99.90
25046;DHT22;13044;49.304;12.840;2024-02-21T04:06:50;6.80;99.90
25046;DHT22;13044;49.304;12.840;2024-02-21T04:09:18;6.80;99.90
25046;DHT22;13044;49.304;12.840;2024-02-21T04:11:45;6.80;99.90
25046;DHT22;13044;49.304;12.840;2024-02-21T04:14:12;6.80;99.90
25046;DHT22;13044;49.304;12.840;2024-02-21T04:16:39;6.90;99.90
25046;DHT22;13044;49.304;12.840;2024-02-21T04:19:07;6.80;99.90
25046;DHT22;13044;49.304;12.840;2024-02-21T04:21:34;6.80;99.90
25046;DHT22;13044;49.304;12.840;2024-02-21T04:24:02;6.80;99.90
25046;DHT22;13044;49.304;12.840;2024-02-21T04:26:32;6.90;99.90
25046;DHT22;13044;49.304;12.840;2024-02-21T04:28:59;6.90;99.90
25046;DHT22;13044;49.304;12.840;2024-02-21T04:31:26;6.90;99.90
25046;DHT22;13044;49.304;12.840;2024-02-21T04:33:53;6.90;99.90
25046;DHT22;13044;49.304;12.840;2024-02-21T04:36:20;6.90;99.90
25046;DHT22;13044;49.304;12.840;2024-02-21T04:38:47;6.90;99.90
25046;DHT22;13044;49.304;12.840;2024-02-21T04:41:14;6.90;99.90
25046;DHT22;13044;49.304;12.840;2024-02-21T04:43:41;6.90;99.90
25046;DHT22;13044;49.304;12.840;2024-02-21T04:46:08;6.90;99.90
25046;DHT22;13044;49.304;12.840;2024-02-21T04:48:36;6.90;99.90
25046;DHT22;13044;49.304;12.840;2024-02-21T04:51:03;6.90;99.90
25046;DHT22;13044;49.304;12.840;2024-02-21T04:53:30;6.90;99.90
25046;DHT22;13044;49.304;12.840;2024-02-21T04:55:57;6.90;99.90
25046;DHT22;13044;49.304;12.840;2024-02-21T04:58:24;6.90;99.90
25046;DHT22;13044;49.304;12.840;2024-02-21T05:00:52;6.90;99.90
25046;DHT22;13044;49.304;12.840;2024-02-21T05:03:21;6.90;99.90
25046;DHT22;13044;49.304;12.840;2024-02-21T05:05:48;7.00;99.90
25046;DHT22;13044;49.304;12.840;2024-02-21T05:08:16;6.90;99.90
25046;DHT22;13044;49.304;12.840;2024-02-21T05:10:42;6.90;99.90
25046;DHT22;13044;49.304;12.840;2024-02-21T05:13:10;6.90;99.90
25046;DHT22;13044;49.304;12.840;2024-02-21T05:15:36;7.00;99.90
25046;DHT22;13044;49.304;12.840;2024-02-21T05:18:03;7.00;99.90
25046;DHT22;13044;49.304;12.840;2024-02-21T05:20:31;7.00;99.90
25046;DHT22;13044;49.304;12.840;2024-02-21T05:22:58;7.00;99.90
25046;DHT22;13044;49.304;12.840;2024-02-21T05:25:25;7.00;99.90
25046;DHT22;13044;49.304;12.840;2024-02-21T05:27:52;7.00;99.90
25046;DHT22;13044;49.304;12.840;2024-02-21T05:30:20;7.00;99.90
25046;DHT22;13044;49.304;12.840;2024-02-21T05:32:47;7.00;99.90
25046;DHT22;13044;49.304;12.840;2024-02-21T05:35:14;7.10;99.90
25046;DHT22;13044;49.304;12.840;2024-02-21T05:37:41;7.00;99.90
25046;DHT22;13044;49.304;12.840;2024-02-21T05:40:08;7.00;99.90
25046;DHT22;13044;49.304;12.840;2024-02-21T05:42:36;7.00;99.90
25046;DHT22;13044;49.304;12.840;2024-02-21T05:45:04;7.10;99.90
25046;DHT22;13044;49.304;12.840;2024-02-21T05:47:31;7.00;99.90
25046;DHT22;13044;49.304;12.840;2024-02-21T05:49:58;7.00;99.90
25046;DHT22;13044;49.304;12.840;2024-02-21T05:52:25;7.00;99.90
25046;DHT22;13044;49.304;12.840;2024-02-21T05:54:52;7.10;99.90
25046;DHT22;13044;49.304;12.840;2024-02-21T05:57:19;7.10;99.90
25046;DHT22;13044;49.304;12.840;2024-02-21T05:59:45;7.00;99.90
25046;DHT22;13044;49.304;12.840;2024-02-21T06:02:12;7.00;99.90
25046;DHT22;13044;49.304;12.840;2024-02-21T06:04:40;7.00;99.90
25046;DHT22;13044;49.304;12.840;2024-02-21T06:07:07;7.00;99.90
25046;DHT22;13044;49.304;12.840;2024-02-21T06:09:34;7.00;99.90
25046;DHT22;13044;49.304;12.840;2024-02-21T06:12:01;7.00;99.90
25046;DHT22;13044;49.304;12.840;2024-02-21T06:14:28;7.00;99.90
25046;DHT22;13044;49.304;12.840;2024-02-21T06:16:55;7.00;99.90
25046;DHT22;13044;49.304;12.840;2024-02-21T06:19:22;7.10;99.90
25046;DHT22;13044;49.304;12.840;2024-02-21T06:21:49;7.00;99.90
25046;DHT22;13044;49.304;12.840;2024-02-21T06:24:16;7.00;99.90
25046;DHT22;13044;49.304;12.840;2024-02-21T06:26:43;7.00;99.90
25046;DHT22;13044;49.304;12.840;2024-02-21T06:29:11;6.90;99.90
25046;DHT22;13044;49.304;12.840;2024-02-21T06:31:40;6.90;99.90
25046;DHT22;13044;49.304;12.840;2024-02-21T06:34:07;6.90;99.90
25046;DHT22;13044;49.304;12.840;2024-02-21T06:36:34;7.00;99.90
25046;DHT22;13044;49.304;12.840;2024-02-21T06:39:01;7.00;99.90
25046;DHT22;13044;49.304;12.840;2024-02-21T06:41:33;7.00;99.90
25046;DHT22;13044;49.304;12.840;2024-02-21T06:44:02;7.00;99.90
25046;DHT22;13044;49.304;12.840;2024-02-21T06:46:29;6.90;99.90
25046;DHT22;13044;49.304;12.840;2024-02-21T06:48:57;6.90;99.90
25046;DHT22;13044;49.304;12.840;2024-02-21T06:51:25;7.00;99.90
25046;DHT22;13044;49.304;12.840;2024-02-21T06:53:53;7.00;99.90
25046;DHT22;13044;49.304;12.840;2024-02-21T06:56:20;7.00;99.90
25046;DHT22;13044;49.304;12.840;2024-02-21T06:58:53;7.00;99.90
25046;DHT22;13044;49.304;12.840;2024-02-21T07:01:20;7.10;99.90
25046;DHT22;13044;49.304;12.840;2024-02-21T07:03:47;7.00;99.90
25046;DHT22;13044;49.304;12.840;2024-02-21T07:06:14;7.00;99.90
25046;DHT22;13044;49.304;12.840;2024-02-21T07:08:41;7.00;99.90
25046;DHT22;13044;49.304;12.840;2024-02-21T07:11:08;7.00;99.90
25046;DHT22;13044;49.304;12.840;2024-02-21T07:13:35;6.90;99.90
25046;DHT22;13044;49.304;12.840;2024-02-21T07:16:03;6.90;99.90
25046;DHT22;13044;49.304;12.840;2024-02-21T07:18:30;6.90;99.90
25046;DHT22;13044;49.304;12.840;2024-02-21T07:20:56;6.90;99.90
25046;DHT22;13044;49.304;12.840;2024-02-21T07:23:24;7.00;99.90
25046;DHT22;13044;49.304;12.840;2024-02-21T07:25:51;7.00;99.90
25046;DHT22;13044;49.304;12.840;2024-02-21T07:28:18;7.00;99.90
25046;DHT22;13044;49.304;12.840;2024-02-21T07:30:45;7.00;99.90
25046;DHT22;13044;49.304;12.840;2024-02-21T07:33:12;6.90;99.90
25046;DHT22;13044;49.304;12.840;2024-02-21T07:35:39;7.00;99.90
25046;DHT22;13044;49.304;12.840;2024-02-21T07:38:08;7.00;99.90
25046;DHT22;13044;49.304;12.840;2024-02-21T07:40:39;7.00;99.90
25046;DHT22;13044;49.304;12.840;2024-02-21T07:43:06;7.00;99.90
25046;DHT22;13044;49.304;12.840;2024-02-21T07:45:33;7.10;99.90
25046;DHT22;13044;49.304;12.840;2024-02-21T07:47:59;7.10;99.90
25046;DHT22;13044;49.304;12.840;2024-02-21T07:50:26;7.10;99.90
25046;DHT22;13044;49.304;12.840;2024-02-21T07:52:53;7.20;99.90
25046;DHT22;13044;49.304;12.840;2024-02-21T07:55:20;7.30;99.90
25046;DHT22;13044;49.304;12.840;2024-02-21T07:57:47;7.30;99.90
25046;DHT22;13044;49.304;12.840;2024-02-21T08:00:15;7.50;99.90
25046;DHT22;13044;49.304;12.840;2024-02-21T08:02:48;7.60;99.90
25046;DHT22;13044;49.304;12.840;2024-02-21T08:05:15;7.70;99.90
25046;DHT22;13044;49.304;12.840;2024-02-21T08:07:42;7.80;99.90
25046;DHT22;13044;49.304;12.840;2024-02-21T08:10:09;7.80;99.90
25046;DHT22;13044;49.304;12.840;2024-02-21T08:12:36;7.60;99.90
25046;DHT22;13044;49.304;12.840;2024-02-21T08:15:04;7.70;99.90
25046;DHT22;13044;49.304;12.840;2024-02-21T08:17:31;7.70;99.90
25046;DHT22;13044;49.304;12.840;2024-02-21T08:19:58;7.90;99.90
25046;DHT22;13044;49.304;12.840;2024-02-21T08:22:25;8.10;99.90
25046;DHT22;13044;49.304;12.840;2024-02-21T08:24:53;8.30;99.90
25046;DHT22;13044;49.304;12.840;2024-02-21T08:27:20;8.30;99.90
25046;DHT22;13044;49.304;12.840;2024-02-21T08:29:47;8.30;99.90
25046;DHT22;13044;49.304;12.840;2024-02-21T08:32:14;8.20;99.90
25046;DHT22;13044;49.304;12.840;2024-02-21T08:34:40;8.20;99.90
25046;DHT22;13044;49.304;12.840;2024-02-21T08:37:08;8.30;99.90
25046;DHT22;13044;49.304;12.840;2024-02-21T08:39:37;8.20;99.90
25046;DHT22;13044;49.304;12.840;2024-02-21T08:42:04;8.20;99.90
25046;DHT22;13044;49.304;12.840;2024-02-21T08:44:31;8.20;99.90
25046;DHT22;13044;49.304;12.840;2024-02-21T08:46:58;8.20;99.90
25046;DHT22;13044;49.304;12.840;2024-02-21T08:49:25;8.20;99.90
25046;DHT22;13044;49.304;12.840;2024-02-21T08:52:00;8.20;99.90
25046;DHT22;13044;49.304;12.840;2024-02-21T08:54:28;8.30;99.90
25046;DHT22;13044;49.304;12.840;2024-02-21T08:56:55;8.40;99.90
25046;DHT22;13044;49.304;12.840;2024-02-21T08:59:23;8.40;99.90
25046;DHT22;13044;49.304;12.840;2024-02-21T09:01:51;8.40;99.90
25046;DHT22;13044;49.304;12.840;2024-02-21T09:04:20;8.40;99.90
25046;DHT22;13044;49.304;12.840;2024-02-21T09:06:47;8.40;99.90
25046;DHT22;13044;49.304;12.840;2024-02-21T09:09:14;8.30;99.90
25046;DHT22;13044;49.304;12.840;2024-02-21T09:11:41;8.30;99.90
25046;DHT22;13044;49.304;12.840;2024-02-21T09:14:08;8.30;99.90
25046;DHT22;13044;49.304;12.840;2024-02-21T09:16:35;8.40;99.90
25046;DHT22;13044;49.304;12.840;2024-02-21T09:19:02;8.50;99.90
25046;DHT22;13044;49.304;12.840;2024-02-21T09:21:29;8.50;99.90
25046;DHT22;13044;49.304;12.840;2024-02-21T09:23:56;8.60;99.90
25046;DHT22;13044;49.304;12.840;2024-02-21T09:26:26;8.70;99.90
25046;DHT22;13044;49.304;12.840;2024-02-21T09:28:53;9.00;99.90
25046;DHT22;13044;49.304;12.840;2024-02-21T09:31:20;9.30;99.90
25046;DHT22;13044;49.304;12.840;2024-02-21T09:33:47;9.60;99.90
25046;DHT22;13044;49.304;12.840;2024-02-21T09:36:14;9.80;99.90
25046;DHT22;13044;49.304;12.840;2024-02-21T09:38:41;10.00;99.90
25046;DHT22;13044;49.304;12.840;2024-02-21T09:43:50;10.40;99.90
25046;DHT22;13044;49.304;12.840;2024-02-21T09:46:18;10.40;99.90
25046;DHT22;13044;49.304;12.840;2024-02-21T09:51:57;10.10;99.90
25046;DHT22;13044;49.304;12.840;2024-02-21T09:54:32;10.00;99.90
25046;DHT22;13044;49.304;12.840;2024-02-21T09:57:03;10.00;99.90
25046;DHT22;13044;49.304;12.840;2024-02-21T09:59:33;10.10;99.90
25046;DHT22;13044;49.304;12.840;2024-02-21T10:02:00;10.30;99.90
25046;DHT22;13044;49.304;12.840;2024-02-21T10:04:28;10.60;99.90
25046;DHT22;13044;49.304;12.840;2024-02-21T10:06:56;10.80;99.90
25046;DHT22;13044;49.304;12.840;2024-02-21T10:09:27;11.10;99.90
25046;DHT22;13044;49.304;12.840;2024-02-21T10:12:15;11.30;99.90
25046;DHT22;13044;49.304;12.840;2024-02-21T10:14:45;11.60;99.90
25046;DHT22;13044;49.304;12.840;2024-02-21T10:17:17;11.70;99.90
25046;DHT22;13044;49.304;12.840;2024-02-21T10:19:46;11.60;99.90
25046;DHT22;13044;49.304;12.840;2024-02-21T10:22:15;11.60;99.90
25046;DHT22;13044;49.304;12.840;2024-02-21T10:24:42;11.70;99.90
25046;DHT22;13044;49.304;12.840;2024-02-21T10:27:10;11.90;99.90
25046;DHT22;13044;49.304;12.840;2024-02-21T10:29:40;11.90;99.90
25046;DHT22;13044;49.304;12.840;2024-02-21T10:32:12;12.00;99.90
25046;DHT22;13044;49.304;12.840;2024-02-21T10:34:41;12.10;99.90
25046;DHT22;13044;49.304;12.840;2024-02-21T10:37:11;12.00;99.90
25046;DHT22;13044;49.304;12.840;2024-02-21T10:39:40;12.20;99.90
25046;DHT22;13044;49.304;12.840;2024-02-21T10:42:11;12.40;99.90
25046;DHT22;13044;49.304;12.840;2024-02-21T10:44:40;12.30;99.90
25046;DHT22;13044;49.304;12.840;2024-02-21T10:47:10;12.40;99.90
25046;DHT22;13044;49.304;12.840;2024-02-21T10:49:40;12.30;99.90
25046;DHT22;13044;49.304;12.840;2024-02-21T10:55:21;12.70;99.90
25046;DHT22;13044;49.304;12.840;2024-02-21T10:58:06;12.70;99.90
25046;DHT22;13044;49.304;12.840;2024-02-21T11:00:33;12.80;99.90
25046;DHT22;13044;49.304;12.840;2024-02-21T11:03:01;12.80;99.90
25046;DHT22;13044;49.304;12.840;2024-02-21T11:05:29;12.60;99.90
25046;DHT22;13044;49.304;12.840;2024-02-21T11:07:57;12.80;99.90
25046;DHT22;13044;49.304;12.840;2024-02-21T11:10:25;13.00;99.90
25046;DHT22;13044;49.304;12.840;2024-02-21T11:13:15;12.80;99.90
25046;DHT22;13044;49.304;12.840;2024-02-21T11:15:41;12.70;99.90
25046;DHT22;13044;49.304;12.840;2024-02-21T11:18:08;12.30;99.90
25046;DHT22;13044;49.304;12.840;2024-02-21T11:20:36;12.50;99.90
25046;DHT22;13044;49.304;12.840;2024-02-21T11:23:04;12.50;99.90
25046;DHT22;13044;49.304;12.840;2024-02-21T11:25:31;12.40;99.90
25046;DHT22;13044;49.304;12.840;2024-02-21T11:28:04;12.30;99.90
25046;DHT22;13044;49.304;12.840;2024-02-21T11:30:32;12.50;99.90
25046;DHT22;13044;49.304;12.840;2024-02-21T11:33:02;12.70;99.90
25046;DHT22;13044;49.304;12.840;2024-02-21T11:35:34;12.80;99.90
25046;DHT22;13044;49.304;12.840;2024-02-21T11:38:12;13.10;99.90
25046;DHT22;13044;49.304;12.840;2024-02-21T11:40:45;13.20;99.90
25046;DHT22;13044;49.304;12.840;2024-02-21T11:43:13;13.40;99.90
25046;DHT22;13044;49.304;12.840;2024-02-21T11:45:40;13.50;99.90
25046;DHT22;13044;49.304;12.840;2024-02-21T11:48:07;13.50;99.00
25046;DHT22;13044;49.304;12.840;2024-02-21T11:50:35;13.60;99.90
25046;DHT22;13044;49.304;12.840;2024-02-21T11:53:06;13.70;99.50
25046;DHT22;13044;49.304;12.840;2024-02-21T11:55:33;13.70;99.20
25046;DHT22;13044;49.304;12.840;2024-02-21T11:58:01;13.80;99.40
25046;DHT22;13044;49.304;12.840;2024-02-21T12:00:28;13.80;98.20
25046;DHT22;13044;49.304;12.840;2024-02-21T12:02:55;13.60;97.80
25046;DHT22;13044;49.304;12.840;2024-02-21T12:05:28;13.60;98.40
25046;DHT22;13044;49.304;12.840;2024-02-21T12:07:56;13.60;96.60
25046;DHT22;13044;49.304;12.840;2024-02-21T12:10:26;13.60;98.10
25046;DHT22;13044;49.304;12.840;2024-02-21T12:13:04;13.60;96.60
25046;DHT22;13044;49.304;12.840;2024-02-21T12:15:32;13.50;97.90
25046;DHT22;13044;49.304;12.840;2024-02-21T12:17:58;13.60;97.50
25046;DHT22;13044;49.304;12.840;2024-02-21T12:20:26;13.70;97.60
25046;DHT22;13044;49.304;12.840;2024-02-21T12:22:53;13.70;97.30
25046;DHT22;13044;49.304;12.840;2024-02-21T12:25:22;13.70;98.00
25046;DHT22;13044;49.304;12.840;2024-02-21T12:27:50;13.80;97.70
25046;DHT22;13044;49.304;12.840;2024-02-21T12:30:17;13.90;97.80
25046;DHT22;13044;49.304;12.840;2024-02-21T12:32:46;13.90;96.20
25046;DHT22;13044;49.304;12.840;2024-02-21T12:35:13;13.70;95.80
25046;DHT22;13044;49.304;12.840;2024-02-21T12:37:40;13.70;96.70
25046;DHT22;13044;49.304;12.840;2024-02-21T12:40:08;13.40;96.90
25046;DHT22;13044;49.304;12.840;2024-02-21T12:42:37;13.60;96.70
25046;DHT22;13044;49.304;12.840;2024-02-21T12:45:04;13.70;96.90
25046;DHT22;13044;49.304;12.840;2024-02-21T12:47:31;13.60;95.70
25046;DHT22;13044;49.304;12.840;2024-02-21T12:49:58;13.70;95.30
25046;DHT22;13044;49.304;12.840;2024-02-21T12:52:25;13.70;95.50
25046;DHT22;13044;49.304;12.840;2024-02-21T12:54:52;13.90;96.20
25046;DHT22;13044;49.304;12.840;2024-02-21T12:57:23;14.10;96.00
25046;DHT22;13044;49.304;12.840;2024-02-21T12:59:53;14.30;96.80
25046;DHT22;13044;49.304;12.840;2024-02-21T13:02:20;14.40;95.10
25046;DHT22;13044;49.304;12.840;2024-02-21T13:04:47;14.40;94.50
25046;DHT22;13044;49.304;12.840;2024-02-21T13:07:15;14.30;94.50
25046;DHT22;13044;49.304;12.840;2024-02-21T13:09:42;14.30;95.40
25046;DHT22;13044;49.304;12.840;2024-02-21T13:12:09;14.40;95.30
25046;DHT22;13044;49.304;12.840;2024-02-21T13:14:37;14.40;94.60
25046;DHT22;13044;49.304;12.840;2024-02-21T13:17:05;14.40;94.30
25046;DHT22;13044;49.304;12.840;2024-02-21T13:19:33;14.30;94.60
25046;DHT22;13044;49.304;12.840;2024-02-21T13:22:00;14.00;94.40
25046;DHT22;13044;49.304;12.840;2024-02-21T13:24:30;14.10;95.00
25046;DHT22;13044;49.304;12.840;2024-02-21T13:26:58;14.10;94.20
25046;DHT22;13044;49.304;12.840;2024-02-21T13:29:25;13.90;95.20
25046;DHT22;13044;49.304;12.840;2024-02-21T13:31:52;13.80;94.60
25046;DHT22;13044;49.304;12.840;2024-02-21T13:34:19;13.70;95.30
25046;DHT22;13044;49.304;12.840;2024-02-21T13:36:46;13.50;95.60
25046;DHT22;13044;49.304;12.840;2024-02-21T13:39:13;13.20;95.30
25046;DHT22;13044;49.304;12.840;2024-02-21T13:41:42;13.00;96.00
25046;DHT22;13044;49.304;12.840;2024-02-21T13:44:10;12.90;96.60
25046;DHT22;13044;49.304;12.840;2024-02-21T13:46:39;12.80;96.40
25046;DHT22;13044;49.304;12.840;2024-02-21T13:49:06;12.70;96.90
25046;DHT22;13044;49.304;12.840;2024-02-21T13:51:34;12.70;97.30
25046;DHT22;13044;49.304;12.840;2024-02-21T13:54:04;12.70;97.40
25046;DHT22;13044;49.304;12.840;2024-02-21T13:56:31;12.60;98.00
25046;DHT22;13044;49.304;12.840;2024-02-21T13:58:59;12.60;98.20
25046;DHT22;13044;49.304;12.840;2024-02-21T14:01:27;12.50;98.80
25046;DHT22;13044;49.304;12.840;2024-02-21T14:03:59;12.50;98.10
25046;DHT22;13044;49.304;12.840;2024-02-21T14:06:25;12.40;97.90
25046;DHT22;13044;49.304;12.840;2024-02-21T14:08:52;12.30;98.20
25046;DHT22;13044;49.304;12.840;2024-02-21T14:11:19;12.30;98.30
25046;DHT22;13044;49.304;12.840;2024-02-21T14:13:46;12.30;98.60
25046;DHT22;13044;49.304;12.840;2024-02-21T14:16:13;12.40;98.50
25046;DHT22;13044;49.304;12.840;2024-02-21T14:18:41;12.40;98.50
25046;DHT22;13044;49.304;12.840;2024-02-21T14:21:10;12.40;99.50
25046;DHT22;13044;49.304;12.840;2024-02-21T14:23:39;12.50;99.20
25046;DHT22;13044;49.304;12.840;2024-02-21T14:26:06;12.60;98.40
25046;DHT22;13044;49.304;12.840;2024-02-21T14:28:33;12.50;98.50
25046;DHT22;13044;49.304;12.840;2024-02-21T14:31:00;12.40;98.00
25046;DHT22;13044;49.304;12.840;2024-02-21T14:33:28;12.40;97.80
25046;DHT22;13044;49.304;12.840;2024-02-21T14:35:55;12.30;98.30
25046;DHT22;13044;49.304;12.840;2024-02-21T14:38:22;12.10;97.90
25046;DHT22;13044;49.304;12.840;2024-02-21T14:40:49;12.10;98.90
25046;DHT22;13044;49.304;12.840;2024-02-21T14:43:16;12.20;98.70
25046;DHT22;13044;49.304;12.840;2024-02-21T14:45:44;12.20;99.10
25046;DHT22;13044;49.304;12.840;2024-02-21T14:48:14;12.10;99.20
25046;DHT22;13044;49.304;12.840;2024-02-21T14:50:41;12.20;99.00
25046;DHT22;13044;49.304;12.840;2024-02-21T14:53:10;12.10;98.90
25046;DHT22;13044;49.304;12.840;2024-02-21T14:55:38;12.10;98.90
25046;DHT22;13044;49.304;12.840;2024-02-21T14:58:08;12.00;98.80
25046;DHT22;13044;49.304;12.840;2024-02-21T15:00:35;12.00;98.80
25046;DHT22;13044;49.304;12.840;2024-02-21T15:03:02;12.00;98.50
25046;DHT22;13044;49.304;12.840;2024-02-21T15:05:30;11.90;98.80
25046;DHT22;13044;49.304;12.840;2024-02-21T15:07:57;11.90;98.50
25046;DHT22;13044;49.304;12.840;2024-02-21T15:10:25;11.90;99.40
25046;DHT22;13044;49.304;12.840;2024-02-21T15:12:52;11.90;99.40
25046;DHT22;13044;49.304;12.840;2024-02-21T15:15:19;11.80;99.30
25046;DHT22;13044;49.304;12.840;2024-02-21T15:17:45;11.80;99.60
25046;DHT22;13044;49.304;12.840;2024-02-21T15:20:13;11.80;99.50
25046;DHT22;13044;49.304;12.840;2024-02-21T15:22:40;11.80;99.90
25046;DHT22;13044;49.304;12.840;2024-02-21T15:25:07;11.80;99.80
25046;DHT22;13044;49.304;12.840;2024-02-21T15:27:44;11.70;99.80
25046;DHT22;13044;49.304;12.840;2024-02-21T15:30:12;11.70;99.80
25046;DHT22;13044;49.304;12.840;2024-02-21T15:32:40;11.70;99.90
25046;DHT22;13044;49.304;12.840;2024-02-21T15:35:10;11.60;99.90
25046;DHT22;13044;49.304;12.840;2024-02-21T15:37:37;11.60;99.90